sensor_id;sensor_type;location;lat;lon;timestamp;P1;durP1;ratioP1;P2;durP2;ratioP2
15990;SDS011;8100;50.994;4.538;2024-03-08T00:02:14;21.63;;;10.43;;
15990;SDS011;8100;50.994;4.538;2024-03-08T00:05:01;15.57;;;7.10;;
15990;SDS011;8100;50.994;4.538;2024-03-08T00:07:48;17.92;;;8.60;;
15990;SDS011;8100;50.994;4.538;2024-03-08T00:10:35;18.80;;;9.13;;
15990;SDS011;8100;50.994;4.538;2024-03-08T00:13:24;18.15;;;8.60;;
15990;SDS011;8100;50.994;4.538;2024-03-08T00:16:11;21.48;;;10.25;;
15990;SDS011;8100;50.994;4.538;2024-03-08T00:18:59;19.98;;;9.50;;
15990;SDS011;8100;50.994;4.538;2024-03-08T00:21:46;18.67;;;8.40;;
15990;SDS011;8100;50.994;4.538;2024-03-08T00:24:33;21.35;;;8.50;;
15990;SDS011;8100;50.994;4.538;2024-03-08T00:27:20;17.90;;;8.45;;
15990;SDS011;8100;50.994;4.538;2024-03-08T00:30:07;18.85;;;10.05;;
15990;SDS011;8100;50.994;4.538;2024-03-08T00:32:56;19.00;;;9.65;;
15990;SDS011;8100;50.994;4.538;2024-03-08T00:35:44;21.40;;;10.98;;
15990;SDS011;8100;50.994;4.538;2024-03-08T00:38:31;18.88;;;9.80;;
15990;SDS011;8100;50.994;4.538;2024-03-08T00:41:19;19.50;;;9.98;;
15990;SDS011;8100;50.994;4.538;2024-03-08T00:44:06;22.25;;;10.00;;
15990;SDS011;8100;50.994;4.538;2024-03-08T00:46:53;18.48;;;10.15;;
15990;SDS011;8100;50.994;4.538;2024-03-08T00:49:40;19.42;;;10.07;;
15990;SDS011;8100;50.994;4.538;2024-03-08T00:52:29;21.98;;;10.00;;
15990;SDS011;8100;50.994;4.538;2024-03-08T00:55:16;20.83;;;10.68;;
15990;SDS011;8100;50.994;4.538;2024-03-08T00:58:03;19.02;;;9.68;;
15990;SDS011;8100;50.994;4.538;2024-03-08T01:00:50;19.38;;;9.27;;
15990;SDS011;8100;50.994;4.538;2024-03-08T01:03:37;11.80;;;5.95;;
15990;SDS011;8100;50.994;4.538;2024-03-08T01:06:24;17.67;;;9.15;;
15990;SDS011;8100;50.994;4.538;2024-03-08T01:09:15;21.77;;;8.75;;
15990;SDS011;8100;50.994;4.538;2024-03-08T01:12:02;19.88;;;9.27;;
15990;SDS011;8100;50.994;4.538;2024-03-08T01:14:52;14.10;;;7.82;;
15990;SDS011;8100;50.994;4.538;2024-03-08T01:17:39;17.65;;;9.63;;
15990;SDS011;8100;50.994;4.538;2024-03-08T01:20:26;17.98;;;9.15;;
15990;SDS011;8100;50.994;4.538;2024-03-08T01:23:13;14.23;;;6.20;;
15990;SDS011;8100;50.994;4.538;2024-03-08T01:26:01;16.80;;;9.13;;
15990;SDS011;8100;50.994;4.538;2024-03-08T01:28:49;17.20;;;9.65;;
15990;SDS011;8100;50.994;4.538;2024-03-08T01:31:36;18.75;;;9.98;;
15990;SDS011;8100;50.994;4.538;2024-03-08T01:34:23;15.93;;;8.38;;
15990;SDS011;8100;50.994;4.538;2024-03-08T01:37:09;16.65;;;9.40;;
15990;SDS011;8100;50.994;4.538;2024-03-08T01:39:56;17.42;;;9.43;;
15990;SDS011;8100;50.994;4.538;2024-03-08T01:42:45;17.77;;;8.45;;
15990;SDS011;8100;50.994;4.538;2024-03-08T01:45:33;18.20;;;7.50;;
15990;SDS011;8100;50.994;4.538;2024-03-08T01:48:20;12.98;;;6.95;;
15990;SDS011;8100;50.994;4.538;2024-03-08T01:51:09;11.32;;;5.68;;
15990;SDS011;8100;50.994;4.538;2024-03-08T01:53:57;12.50;;;6.15;;
15990;SDS011;8100;50.994;4.538;2024-03-08T01:56:47;13.70;;;7.32;;
15990;SDS011;8100;50.994;4.538;2024-03-08T01:59:36;18.05;;;9.18;;
15990;SDS011;8100;50.994;4.538;2024-03-08T02:02:23;12.23;;;7.30;;
15990;SDS011;8100;50.994;4.538;2024-03-08T02:05:12;10.20;;;5.18;;
15990;SDS011;8100;50.994;4.538;2024-03-08T02:07:59;15.35;;;8.23;;
15990;SDS011;8100;50.994;4.538;2024-03-08T02:10:47;13.43;;;6.85;;
15990;SDS011;8100;50.994;4.538;2024-03-08T02:13:36;12.73;;;6.25;;
15990;SDS011;8100;50.994;4.538;2024-03-08T02:16:24;15.23;;;6.85;;
15990;SDS011;8100;50.994;4.538;2024-03-08T02:19:11;18.27;;;10.00;;
15990;SDS011;8100;50.994;4.538;2024-03-08T02:21:59;11.27;;;4.90;;
15990;SDS011;8100;50.994;4.538;2024-03-08T02:24:49;11.90;;;7.35;;
15990;SDS011;8100;50.994;4.538;2024-03-08T02:27:36;13.70;;;7.50;;
15990;SDS011;8100;50.994;4.538;2024-03-08T02:30:23;12.68;;;7.82;;
15990;SDS011;8100;50.994;4.538;2024-03-08T02:33:15;14.73;;;8.93;;
15990;SDS011;8100;50.994;4.538;2024-03-08T02:36:03;11.18;;;5.55;;
15990;SDS011;8100;50.994;4.538;2024-03-08T02:38:52;11.95;;;6.63;;
15990;SDS011;8100;50.994;4.538;2024-03-08T02:41:40;14.90;;;7.88;;
15990;SDS011;8100;50.994;4.538;2024-03-08T02:44:27;17.00;;;9.10;;
15990;SDS011;8100;50.994;4.538;2024-03-08T02:47:14;13.90;;;7.60;;
15990;SDS011;8100;50.994;4.538;2024-03-08T02:50:01;16.45;;;9.15;;
15990;SDS011;8100;50.994;4.538;2024-03-08T02:52:49;14.90;;;8.93;;
15990;SDS011;8100;50.994;4.538;2024-03-08T02:55:37;12.75;;;7.10;;
15990;SDS011;8100;50.994;4.538;2024-03-08T02:58:24;16.55;;;10.15;;
15990;SDS011;8100;50.994;4.538;2024-03-08T03:01:11;17.25;;;10.30;;
15990;SDS011;8100;50.994;4.538;2024-03-08T03:03:58;15.80;;;9.50;;
15990;SDS011;8100;50.994;4.538;2024-03-08T03:06:45;13.43;;;6.70;;
15990;SDS011;8100;50.994;4.538;2024-03-08T03:09:32;14.98;;;7.75;;
15990;SDS011;8100;50.994;4.538;2024-03-08T03:12:20;19.23;;;10.80;;
15990;SDS011;8100;50.994;4.538;2024-03-08T03:15:08;12.52;;;6.35;;
15990;SDS011;8100;50.994;4.538;2024-03-08T03:17:56;13.45;;;7.20;;
15990;SDS011;8100;50.994;4.538;2024-03-08T03:20:43;17.15;;;8.55;;
15990;SDS011;8100;50.994;4.538;2024-03-08T03:23:30;16.98;;;9.40;;
15990;SDS011;8100;50.994;4.538;2024-03-08T03:26:18;15.55;;;5.72;;
15990;SDS011;8100;50.994;4.538;2024-03-08T03:29:08;16.30;;;9.93;;
15990;SDS011;8100;50.994;4.538;2024-03-08T03:31:56;16.42;;;9.65;;
15990;SDS011;8100;50.994;4.538;2024-03-08T03:34:43;15.65;;;9.00;;
15990;SDS011;8100;50.994;4.538;2024-03-08T03:37:30;14.13;;;8.35;;
15990;SDS011;8100;50.994;4.538;2024-03-08T03:40:17;16.85;;;8.73;;
15990;SDS011;8100;50.994;4.538;2024-03-08T03:43:05;16.95;;;9.10;;
15990;SDS011;8100;50.994;4.538;2024-03-08T03:45:53;13.27;;;6.93;;
15990;SDS011;8100;50.994;4.538;2024-03-08T03:48:40;15.20;;;8.40;;
15990;SDS011;8100;50.994;4.538;2024-03-08T03:51:28;13.68;;;6.65;;
15990;SDS011;8100;50.994;4.538;2024-03-08T03:54:15;12.57;;;7.70;;
15990;SDS011;8100;50.994;4.538;2024-03-08T03:57:02;14.60;;;7.80;;
15990;SDS011;8100;50.994;4.538;2024-03-08T03:59:50;14.75;;;9.55;;
15990;SDS011;8100;50.994;4.538;2024-03-08T04:02:38;14.88;;;9.40;;
15990;SDS011;8100;50.994;4.538;2024-03-08T04:05:26;22.30;;;9.25;;
15990;SDS011;8100;50.994;4.538;2024-03-08T04:08:13;12.77;;;6.38;;
15990;SDS011;8100;50.994;4.538;2024-03-08T04:11:00;11.13;;;6.28;;
15990;SDS011;8100;50.994;4.538;2024-03-08T04:13:47;13.30;;;7.55;;
15990;SDS011;8100;50.994;4.538;2024-03-08T04:16:34;16.75;;;7.70;;
15990;SDS011;8100;50.994;4.538;2024-03-08T04:19:23;14.43;;;8.30;;
15990;SDS011;8100;50.994;4.538;2024-03-08T04:22:13;17.40;;;8.82;;
15990;SDS011;8100;50.994;4.538;2024-03-08T04:25:00;15.57;;;9.50;;
15990;SDS011;8100;50.994;4.538;2024-03-08T04:27:47;13.82;;;8.13;;
15990;SDS011;8100;50.994;4.538;2024-03-08T04:30:34;14.45;;;7.80;;
15990;SDS011;8100;50.994;4.538;2024-03-08T04:33:22;12.60;;;6.57;;
15990;SDS011;8100;50.994;4.538;2024-03-08T04:36:10;10.60;;;5.82;;
15990;SDS011;8100;50.994;4.538;2024-03-08T04:38:58;7.47;;;4.47;;
15990;SDS011;8100;50.994;4.538;2024-03-08T04:41:45;13.95;;;8.07;;
15990;SDS011;8100;50.994;4.538;2024-03-08T04:44:32;15.80;;;10.00;;
15990;SDS011;8100;50.994;4.538;2024-03-08T04:47:19;11.73;;;6.10;;
15990;SDS011;8100;50.994;4.538;2024-03-08T04:50:07;9.32;;;5.93;;
15990;SDS011;8100;50.994;4.538;2024-03-08T04:52:56;16.73;;;7.88;;
15990;SDS011;8100;50.994;4.538;2024-03-08T04:55:43;11.68;;;6.93;;
15990;SDS011;8100;50.994;4.538;2024-03-08T04:58:30;15.13;;;8.93;;
15990;SDS011;8100;50.994;4.538;2024-03-08T05:01:17;10.80;;;6.72;;
15990;SDS011;8100;50.994;4.538;2024-03-08T05:04:04;15.23;;;9.30;;
15990;SDS011;8100;50.994;4.538;2024-03-08T05:06:51;13.82;;;7.72;;
15990;SDS011;8100;50.994;4.538;2024-03-08T05:09:40;15.55;;;8.95;;
15990;SDS011;8100;50.994;4.538;2024-03-08T05:12:27;16.73;;;9.57;;
15990;SDS011;8100;50.994;4.538;2024-03-08T05:15:14;18.15;;;10.18;;
15990;SDS011;8100;50.994;4.538;2024-03-08T05:18:01;17.05;;;9.98;;
15990;SDS011;8100;50.994;4.538;2024-03-08T05:20:49;16.98;;;9.85;;
15990;SDS011;8100;50.994;4.538;2024-03-08T05:23:36;14.65;;;8.15;;
15990;SDS011;8100;50.994;4.538;2024-03-08T05:26:26;14.43;;;9.07;;
15990;SDS011;8100;50.994;4.538;2024-03-08T05:29:15;13.73;;;7.95;;
15990;SDS011;8100;50.994;4.538;2024-03-08T05:32:03;17.88;;;9.32;;
15990;SDS011;8100;50.994;4.538;2024-03-08T05:34:52;16.63;;;9.02;;
15990;SDS011;8100;50.994;4.538;2024-03-08T05:37:39;11.27;;;6.72;;
15990;SDS011;8100;50.994;4.538;2024-03-08T05:40:25;18.17;;;10.07;;
15990;SDS011;8100;50.994;4.538;2024-03-08T05:43:18;15.82;;;8.65;;
15990;SDS011;8100;50.994;4.538;2024-03-08T05:46:05;18.92;;;11.30;;
15990;SDS011;8100;50.994;4.538;2024-03-08T05:48:52;14.57;;;7.03;;
15990;SDS011;8100;50.994;4.538;2024-03-08T05:51:40;16.73;;;7.97;;
15990;SDS011;8100;50.994;4.538;2024-03-08T05:54:27;18.17;;;10.60;;
15990;SDS011;8100;50.994;4.538;2024-03-08T05:57:14;15.38;;;7.95;;
15990;SDS011;8100;50.994;4.538;2024-03-08T06:00:02;15.48;;;9.60;;
15990;SDS011;8100;50.994;4.538;2024-03-08T06:02:50;16.38;;;9.05;;
15990;SDS011;8100;50.994;4.538;2024-03-08T06:05:37;21.25;;;11.23;;
15990;SDS011;8100;50.994;4.538;2024-03-08T06:08:27;18.30;;;9.63;;
15990;SDS011;8100;50.994;4.538;2024-03-08T06:11:15;22.35;;;11.50;;
15990;SDS011;8100;50.994;4.538;2024-03-08T06:14:03;21.13;;;11.48;;
15990;SDS011;8100;50.994;4.538;2024-03-08T06:16:52;18.73;;;10.27;;
15990;SDS011;8100;50.994;4.538;2024-03-08T06:19:39;19.35;;;11.15;;
15990;SDS011;8100;50.994;4.538;2024-03-08T06:22:26;20.33;;;12.20;;
15990;SDS011;8100;50.994;4.538;2024-03-08T06:25:15;13.75;;;6.18;;
15990;SDS011;8100;50.994;4.538;2024-03-08T06:28:03;15.05;;;7.47;;
15990;SDS011;8100;50.994;4.538;2024-03-08T06:30:50;13.05;;;6.18;;
15990;SDS011;8100;50.994;4.538;2024-03-08T06:33:39;16.92;;;9.00;;
15990;SDS011;8100;50.994;4.538;2024-03-08T06:36:26;15.50;;;8.13;;
15990;SDS011;8100;50.994;4.538;2024-03-08T06:39:13;5.75;;;3.67;;
15990;SDS011;8100;50.994;4.538;2024-03-08T06:42:00;13.50;;;6.63;;
15990;SDS011;8100;50.994;4.538;2024-03-08T06:44:47;16.13;;;8.45;;
15990;SDS011;8100;50.994;4.538;2024-03-08T06:47:35;11.70;;;5.43;;
15990;SDS011;8100;50.994;4.538;2024-03-08T06:50:23;17.88;;;8.13;;
15990;SDS011;8100;50.994;4.538;2024-03-08T06:53:10;13.50;;;6.55;;
15990;SDS011;8100;50.994;4.538;2024-03-08T06:55:57;12.65;;;6.65;;
15990;SDS011;8100;50.994;4.538;2024-03-08T06:58:44;17.65;;;9.55;;
15990;SDS011;8100;50.994;4.538;2024-03-08T07:01:31;17.70;;;8.55;;
15990;SDS011;8100;50.994;4.538;2024-03-08T07:04:21;14.95;;;6.95;;
15990;SDS011;8100;50.994;4.538;2024-03-08T07:07:13;14.35;;;6.03;;
15990;SDS011;8100;50.994;4.538;2024-03-08T07:10:00;10.82;;;6.15;;
15990;SDS011;8100;50.994;4.538;2024-03-08T07:12:47;11.68;;;4.93;;
15990;SDS011;8100;50.994;4.538;2024-03-08T07:15:34;10.85;;;5.13;;
15990;SDS011;8100;50.994;4.538;2024-03-08T07:18:21;9.50;;;3.90;;
15990;SDS011;8100;50.994;4.538;2024-03-08T07:21:08;14.02;;;6.95;;
15990;SDS011;8100;50.994;4.538;2024-03-08T07:23:56;11.60;;;6.25;;
15990;SDS011;8100;50.994;4.538;2024-03-08T07:27:03;12.32;;;4.47;;
15990;SDS011;8100;50.994;4.538;2024-03-08T07:29:51;9.48;;;3.65;;
15990;SDS011;8100;50.994;4.538;2024-03-08T07:32:38;9.70;;;4.53;;
15990;SDS011;8100;50.994;4.538;2024-03-08T07:35:25;13.45;;;7.07;;
15990;SDS011;8100;50.994;4.538;2024-03-08T07:38:12;9.32;;;3.75;;
15990;SDS011;8100;50.994;4.538;2024-03-08T07:41:01;12.05;;;6.88;;
15990;SDS011;8100;50.994;4.538;2024-03-08T07:43:48;6.95;;;2.20;;
15990;SDS011;8100;50.994;4.538;2024-03-08T07:46:35;7.35;;;2.85;;
15990;SDS011;8100;50.994;4.538;2024-03-08T07:49:23;13.65;;;5.57;;
15990;SDS011;8100;50.994;4.538;2024-03-08T07:52:10;5.28;;;1.90;;
15990;SDS011;8100;50.994;4.538;2024-03-08T07:55:00;17.58;;;7.82;;
15990;SDS011;8100;50.994;4.538;2024-03-08T07:57:50;14.43;;;7.05;;
15990;SDS011;8100;50.994;4.538;2024-03-08T08:00:37;5.70;;;2.85;;
15990;SDS011;8100;50.994;4.538;2024-03-08T08:03:24;2.65;;;1.60;;
15990;SDS011;8100;50.994;4.538;2024-03-08T08:06:12;10.98;;;5.30;;
15990;SDS011;8100;50.994;4.538;2024-03-08T08:09:01;17.13;;;8.90;;
15990;SDS011;8100;50.994;4.538;2024-03-08T08:11:48;16.88;;;8.02;;
15990;SDS011;8100;50.994;4.538;2024-03-08T08:14:36;14.25;;;5.93;;
15990;SDS011;8100;50.994;4.538;2024-03-08T08:17:24;16.85;;;7.35;;
15990;SDS011;8100;50.994;4.538;2024-03-08T08:20:11;13.95;;;6.57;;
15990;SDS011;8100;50.994;4.538;2024-03-08T08:22:58;14.98;;;7.30;;
15990;SDS011;8100;50.994;4.538;2024-03-08T08:25:45;10.30;;;4.63;;
15990;SDS011;8100;50.994;4.538;2024-03-08T08:28:35;13.77;;;6.97;;
15990;SDS011;8100;50.994;4.538;2024-03-08T08:31:23;5.03;;;2.35;;
15990;SDS011;8100;50.994;4.538;2024-03-08T08:34:10;12.43;;;5.68;;
15990;SDS011;8100;50.994;4.538;2024-03-08T08:36:58;13.48;;;6.85;;
15990;SDS011;8100;50.994;4.538;2024-03-08T08:39:45;17.38;;;8.32;;
15990;SDS011;8100;50.994;4.538;2024-03-08T08:42:32;14.95;;;6.72;;
15990;SDS011;8100;50.994;4.538;2024-03-08T08:45:19;10.82;;;4.75;;
15990;SDS011;8100;50.994;4.538;2024-03-08T08:48:08;17.35;;;7.55;;
15990;SDS011;8100;50.994;4.538;2024-03-08T08:50:55;12.93;;;6.28;;
15990;SDS011;8100;50.994;4.538;2024-03-08T08:53:42;6.68;;;3.05;;
15990;SDS011;8100;50.994;4.538;2024-03-08T08:56:30;3.70;;;1.85;;
15990;SDS011;8100;50.994;4.538;2024-03-08T08:59:18;12.10;;;5.03;;
15990;SDS011;8100;50.994;4.538;2024-03-08T09:02:05;15.48;;;5.82;;
15990;SDS011;8100;50.994;4.538;2024-03-08T09:04:55;5.22;;;2.70;;
15990;SDS011;8100;50.994;4.538;2024-03-08T09:07:42;14.35;;;6.85;;
15990;SDS011;8100;50.994;4.538;2024-03-08T09:10:30;4.03;;;1.92;;
15990;SDS011;8100;50.994;4.538;2024-03-08T09:13:19;6.97;;;3.17;;
15990;SDS011;8100;50.994;4.538;2024-03-08T09:16:05;5.63;;;3.53;;
15990;SDS011;8100;50.994;4.538;2024-03-08T09:18:53;4.03;;;2.13;;
15990;SDS011;8100;50.994;4.538;2024-03-08T09:21:41;11.40;;;3.17;;
15990;SDS011;8100;50.994;4.538;2024-03-08T09:24:28;1.88;;;1.35;;
15990;SDS011;8100;50.994;4.538;2024-03-08T09:27:16;2.92;;;1.50;;
15990;SDS011;8100;50.994;4.538;2024-03-08T09:30:03;11.52;;;4.93;;
15990;SDS011;8100;50.994;4.538;2024-03-08T09:32:52;14.23;;;6.78;;
15990;SDS011;8100;50.994;4.538;2024-03-08T09:35:39;15.05;;;6.20;;
15990;SDS011;8100;50.994;4.538;2024-03-08T09:38:27;11.75;;;5.32;;
15990;SDS011;8100;50.994;4.538;2024-03-08T09:41:14;15.98;;;7.00;;
15990;SDS011;8100;50.994;4.538;2024-03-08T09:44:01;13.18;;;6.32;;
15990;SDS011;8100;50.994;4.538;2024-03-08T09:46:50;15.13;;;7.13;;
15990;SDS011;8100;50.994;4.538;2024-03-08T09:49:38;8.07;;;4.35;;
15990;SDS011;8100;50.994;4.538;2024-03-08T09:52:25;7.03;;;3.08;;
15990;SDS011;8100;50.994;4.538;2024-03-08T09:55:17;6.43;;;3.28;;
15990;SDS011;8100;50.994;4.538;2024-03-08T09:58:07;4.07;;;1.98;;
15990;SDS011;8100;50.994;4.538;2024-03-08T10:01:12;13.38;;;6.75;;
15990;SDS011;8100;50.994;4.538;2024-03-08T10:03:59;9.73;;;4.93;;
15990;SDS011;8100;50.994;4.538;2024-03-08T10:06:46;8.07;;;3.67;;
15990;SDS011;8100;50.994;4.538;2024-03-08T10:09:33;13.43;;;6.10;;
15990;SDS011;8100;50.994;4.538;2024-03-08T10:12:22;1.92;;;0.82;;
15990;SDS011;8100;50.994;4.538;2024-03-08T10:15:09;17.23;;;7.32;;
15990;SDS011;8100;50.994;4.538;2024-03-08T10:17:57;10.45;;;5.10;;
15990;SDS011;8100;50.994;4.538;2024-03-08T10:20:44;7.30;;;3.33;;
15990;SDS011;8100;50.994;4.538;2024-03-08T10:23:31;10.80;;;4.78;;
15990;SDS011;8100;50.994;4.538;2024-03-08T10:26:19;12.13;;;6.88;;
15990;SDS011;8100;50.994;4.538;2024-03-08T10:29:08;14.10;;;6.45;;
15990;SDS011;8100;50.994;4.538;2024-03-08T10:31:55;4.82;;;2.22;;
15990;SDS011;8100;50.994;4.538;2024-03-08T10:34:42;12.38;;;5.97;;
15990;SDS011;8100;50.994;4.538;2024-03-08T10:37:30;5.78;;;2.63;;
15990;SDS011;8100;50.994;4.538;2024-03-08T10:40:18;14.13;;;6.80;;
15990;SDS011;8100;50.994;4.538;2024-03-08T10:43:06;9.70;;;4.53;;
15990;SDS011;8100;50.994;4.538;2024-03-08T10:46:09;12.55;;;5.40;;
15990;SDS011;8100;50.994;4.538;2024-03-08T10:49:03;8.10;;;4.45;;
15990;SDS011;8100;50.994;4.538;2024-03-08T10:51:54;11.88;;;6.40;;
15990;SDS011;8100;50.994;4.538;2024-03-08T10:54:42;13.13;;;5.80;;
15990;SDS011;8100;50.994;4.538;2024-03-08T10:57:31;9.93;;;5.05;;
15990;SDS011;8100;50.994;4.538;2024-03-08T11:00:18;11.63;;;5.65;;
15990;SDS011;8100;50.994;4.538;2024-03-08T11:06:41;9.38;;;4.95;;
15990;SDS011;8100;50.994;4.538;2024-03-08T11:09:30;12.57;;;4.95;;
15990;SDS011;8100;50.994;4.538;2024-03-08T11:12:18;3.70;;;1.60;;
15990;SDS011;8100;50.994;4.538;2024-03-08T11:15:09;14.73;;;6.90;;
15990;SDS011;8100;50.994;4.538;2024-03-08T11:17:58;16.85;;;7.03;;
15990;SDS011;8100;50.994;4.538;2024-03-08T11:20:48;7.22;;;2.13;;
15990;SDS011;8100;50.994;4.538;2024-03-08T11:23:35;11.43;;;5.85;;
15990;SDS011;8100;50.994;4.538;2024-03-08T11:26:23;4.18;;;2.38;;
15990;SDS011;8100;50.994;4.538;2024-03-08T11:32:21;1.23;;;1.02;;
15990;SDS011;8100;50.994;4.538;2024-03-08T11:35:08;2.42;;;1.60;;
15990;SDS011;8100;50.994;4.538;2024-03-08T11:38:06;15.38;;;5.20;;
15990;SDS011;8100;50.994;4.538;2024-03-08T11:40:56;12.65;;;5.60;;
15990;SDS011;8100;50.994;4.538;2024-03-08T11:43:43;16.17;;;7.45;;
15990;SDS011;8100;50.994;4.538;2024-03-08T11:46:30;15.77;;;6.38;;
15990;SDS011;8100;50.994;4.538;2024-03-08T11:49:17;10.98;;;5.68;;
15990;SDS011;8100;50.994;4.538;2024-03-08T11:52:04;15.55;;;7.05;;
15990;SDS011;8100;50.994;4.538;2024-03-08T11:54:53;12.10;;;6.45;;
15990;SDS011;8100;50.994;4.538;2024-03-08T11:57:42;13.02;;;5.70;;
15990;SDS011;8100;50.994;4.538;2024-03-08T12:00:29;13.70;;;1.42;;
15990;SDS011;8100;50.994;4.538;2024-03-08T12:03:20;14.18;;;6.10;;
15990;SDS011;8100;50.994;4.538;2024-03-08T12:06:07;12.55;;;5.40;;
15990;SDS011;8100;50.994;4.538;2024-03-08T12:08:54;10.93;;;4.97;;
15990;SDS011;8100;50.994;4.538;2024-03-08T12:11:43;9.95;;;5.15;;
15990;SDS011;8100;50.994;4.538;2024-03-08T12:14:34;9.40;;;4.43;;
15990;SDS011;8100;50.994;4.538;2024-03-08T12:17:21;10.95;;;4.30;;
15990;SDS011;8100;50.994;4.538;2024-03-08T12:20:13;9.38;;;4.65;;
15990;SDS011;8100;50.994;4.538;2024-03-08T12:23:02;7.30;;;3.15;;
15990;SDS011;8100;50.994;4.538;2024-03-08T12:25:50;4.07;;;1.73;;
15990;SDS011;8100;50.994;4.538;2024-03-08T12:28:38;4.75;;;1.88;;
15990;SDS011;8100;50.994;4.538;2024-03-08T12:31:25;6.68;;;3.85;;
15990;SDS011;8100;50.994;4.538;2024-03-08T12:34:14;14.70;;;6.85;;
15990;SDS011;8100;50.994;4.538;2024-03-08T12:37:01;8.23;;;3.88;;
15990;SDS011;8100;50.994;4.538;2024-03-08T12:39:54;13.50;;;5.65;;
15990;SDS011;8100;50.994;4.538;2024-03-08T12:42:42;10.73;;;5.95;;
15990;SDS011;8100;50.994;4.538;2024-03-08T12:45:30;11.68;;;5.28;;
15990;SDS011;8100;50.994;4.538;2024-03-08T12:48:18;10.23;;;4.30;;
15990;SDS011;8100;50.994;4.538;2024-03-08T12:51:06;9.82;;;4.03;;
15990;SDS011;8100;50.994;4.538;2024-03-08T12:53:54;14.13;;;7.10;;
15990;SDS011;8100;50.994;4.538;2024-03-08T12:56:41;9.88;;;4.22;;
15990;SDS011;8100;50.994;4.538;2024-03-08T12:59:28;7.55;;;3.20;;
15990;SDS011;8100;50.994;4.538;2024-03-08T13:02:16;7.88;;;3.95;;
15990;SDS011;8100;50.994;4.538;2024-03-08T13:05:03;4.47;;;2.03;;
15990;SDS011;8100;50.994;4.538;2024-03-08T13:07:51;13.65;;;6.72;;
15990;SDS011;8100;50.994;4.538;2024-03-08T13:10:38;14.00;;;6.20;;
15990;SDS011;8100;50.994;4.538;2024-03-08T13:13:28;12.95;;;5.07;;
15990;SDS011;8100;50.994;4.538;2024-03-08T13:16:15;11.68;;;5.25;;
15990;SDS011;8100;50.994;4.538;2024-03-08T13:19:05;3.13;;;1.45;;
15990;SDS011;8100;50.994;4.538;2024-03-08T13:21:52;7.13;;;2.90;;
15990;SDS011;8100;50.994;4.538;2024-03-08T13:24:39;3.38;;;1.48;;
15990;SDS011;8100;50.994;4.538;2024-03-08T13:27:27;9.63;;;4.45;;
15990;SDS011;8100;50.994;4.538;2024-03-08T13:30:14;2.35;;;1.00;;
15990;SDS011;8100;50.994;4.538;2024-03-08T13:33:03;9.15;;;4.00;;
15990;SDS011;8100;50.994;4.538;2024-03-08T13:35:53;8.25;;;3.70;;
15990;SDS011;8100;50.994;4.538;2024-03-08T13:38:42;12.27;;;5.88;;
15990;SDS011;8100;50.994;4.538;2024-03-08T13:41:30;3.80;;;1.25;;
15990;SDS011;8100;50.994;4.538;2024-03-08T13:44:17;3.17;;;1.45;;
15990;SDS011;8100;50.994;4.538;2024-03-08T13:47:04;1.95;;;1.13;;
15990;SDS011;8100;50.994;4.538;2024-03-08T13:49:52;9.68;;;2.92;;
15990;SDS011;8100;50.994;4.538;2024-03-08T13:52:41;13.52;;;5.65;;
15990;SDS011;8100;50.994;4.538;2024-03-08T13:55:29;12.75;;;6.47;;
15990;SDS011;8100;50.994;4.538;2024-03-08T13:58:16;7.93;;;2.13;;
15990;SDS011;8100;50.994;4.538;2024-03-08T14:01:03;8.20;;;4.05;;
15990;SDS011;8100;50.994;4.538;2024-03-08T14:03:51;3.00;;;1.75;;
15990;SDS011;8100;50.994;4.538;2024-03-08T14:06:38;11.98;;;5.45;;
15990;SDS011;8100;50.994;4.538;2024-03-08T14:09:26;24.50;;;7.13;;
15990;SDS011;8100;50.994;4.538;2024-03-08T14:12:14;11.93;;;5.45;;
15990;SDS011;8100;50.994;4.538;2024-03-08T14:15:01;10.02;;;5.03;;
15990;SDS011;8100;50.994;4.538;2024-03-08T14:17:54;7.13;;;2.80;;
15990;SDS011;8100;50.994;4.538;2024-03-08T14:20:42;6.07;;;2.40;;
15990;SDS011;8100;50.994;4.538;2024-03-08T14:23:29;10.32;;;3.42;;
15990;SDS011;8100;50.994;4.538;2024-03-08T14:26:19;1.90;;;1.45;;
15990;SDS011;8100;50.994;4.538;2024-03-08T14:29:06;14.00;;;5.05;;
15990;SDS011;8100;50.994;4.538;2024-03-08T14:31:55;10.52;;;5.03;;
15990;SDS011;8100;50.994;4.538;2024-03-08T14:34:43;7.43;;;2.90;;
15990;SDS011;8100;50.994;4.538;2024-03-08T14:37:31;9.55;;;4.35;;
15990;SDS011;8100;50.994;4.538;2024-03-08T14:40:18;4.40;;;1.55;;
15990;SDS011;8100;50.994;4.538;2024-03-08T14:43:08;1.75;;;0.73;;
15990;SDS011;8100;50.994;4.538;2024-03-08T14:45:55;6.75;;;4.03;;
15990;SDS011;8100;50.994;4.538;2024-03-08T14:48:43;8.48;;;4.32;;
15990;SDS011;8100;50.994;4.538;2024-03-08T14:51:30;11.85;;;5.28;;
15990;SDS011;8100;50.994;4.538;2024-03-08T14:54:18;8.82;;;3.88;;
15990;SDS011;8100;50.994;4.538;2024-03-08T14:57:08;4.47;;;1.70;;
15990;SDS011;8100;50.994;4.538;2024-03-08T14:59:56;1.42;;;0.95;;
15990;SDS011;8100;50.994;4.538;2024-03-08T15:02:47;6.80;;;1.98;;
15990;SDS011;8100;50.994;4.538;2024-03-08T15:05:38;8.50;;;3.55;;
15990;SDS011;8100;50.994;4.538;2024-03-08T15:08:32;2.63;;;1.42;;
15990;SDS011;8100;50.994;4.538;2024-03-08T15:11:19;9.13;;;4.45;;
15990;SDS011;8100;50.994;4.538;2024-03-08T15:14:10;9.65;;;4.35;;
15990;SDS011;8100;50.994;4.538;2024-03-08T15:17:00;9.88;;;3.13;;
15990;SDS011;8100;50.994;4.538;2024-03-08T15:19:52;2.97;;;1.65;;
15990;SDS011;8100;50.994;4.538;2024-03-08T15:22:39;7.40;;;4.07;;
15990;SDS011;8100;50.994;4.538;2024-03-08T15:25:26;10.88;;;5.03;;
15990;SDS011;8100;50.994;4.538;2024-03-08T15:28:14;1.65;;;0.85;;
15990;SDS011;8100;50.994;4.538;2024-03-08T15:31:04;1.50;;;0.73;;
15990;SDS011;8100;50.994;4.538;2024-03-08T15:33:53;9.35;;;3.72;;
15990;SDS011;8100;50.994;4.538;2024-03-08T15:36:45;4.93;;;1.90;;
15990;SDS011;8100;50.994;4.538;2024-03-08T15:39:36;0.70;;;0.52;;
15990;SDS011;8100;50.994;4.538;2024-03-08T15:42:23;5.43;;;1.60;;
15990;SDS011;8100;50.994;4.538;2024-03-08T15:45:11;5.85;;;2.85;;
15990;SDS011;8100;50.994;4.538;2024-03-08T15:47:58;13.68;;;4.13;;
15990;SDS011;8100;50.994;4.538;2024-03-08T15:50:51;6.65;;;2.38;;
15990;SDS011;8100;50.994;4.538;2024-03-08T15:53:38;10.63;;;4.18;;
15990;SDS011;8100;50.994;4.538;2024-03-08T15:56:25;8.65;;;4.15;;
15990;SDS011;8100;50.994;4.538;2024-03-08T15:59:12;10.13;;;4.50;;
15990;SDS011;8100;50.994;4.538;2024-03-08T16:01:59;6.18;;;2.90;;
15990;SDS011;8100;50.994;4.538;2024-03-08T16:04:46;3.53;;;1.38;;
15990;SDS011;8100;50.994;4.538;2024-03-08T16:07:35;6.65;;;3.10;;
15990;SDS011;8100;50.994;4.538;2024-03-08T16:10:21;6.18;;;1.33;;
15990;SDS011;8100;50.994;4.538;2024-03-08T16:13:10;8.90;;;3.90;;
15990;SDS011;8100;50.994;4.538;2024-03-08T16:15:58;6.47;;;3.10;;
15990;SDS011;8100;50.994;4.538;2024-03-08T16:18:45;1.33;;;0.65;;
15990;SDS011;8100;50.994;4.538;2024-03-08T16:21:33;10.55;;;4.10;;
15990;SDS011;8100;50.994;4.538;2024-03-08T16:24:22;3.83;;;1.73;;
15990;SDS011;8100;50.994;4.538;2024-03-08T16:27:09;11.98;;;4.97;;
15990;SDS011;8100;50.994;4.538;2024-03-08T16:29:56;9.70;;;4.47;;
15990;SDS011;8100;50.994;4.538;2024-03-08T16:32:43;10.13;;;4.00;;
15990;SDS011;8100;50.994;4.538;2024-03-08T16:35:33;3.00;;;1.88;;
15990;SDS011;8100;50.994;4.538;2024-03-08T16:38:21;6.05;;;2.92;;
15990;SDS011;8100;50.994;4.538;2024-03-08T16:41:09;4.47;;;2.35;;
15990;SDS011;8100;50.994;4.538;2024-03-08T16:43:57;12.15;;;4.90;;
15990;SDS011;8100;50.994;4.538;2024-03-08T16:46:45;13.95;;;4.22;;
15990;SDS011;8100;50.994;4.538;2024-03-08T16:49:34;8.15;;;3.63;;
15990;SDS011;8100;50.994;4.538;2024-03-08T16:52:21;3.75;;;1.70;;
15990;SDS011;8100;50.994;4.538;2024-03-08T16:55:09;6.75;;;3.28;;
15990;SDS011;8100;50.994;4.538;2024-03-08T16:58:01;12.30;;;4.03;;
15990;SDS011;8100;50.994;4.538;2024-03-08T17:00:49;7.85;;;3.63;;
15990;SDS011;8100;50.994;4.538;2024-03-08T17:03:36;8.40;;;3.78;;